Time;durP1;ratioP1;P1;durP2;ratioP2;P2;SDS_P1;SDS_P2;PMS_P1;PMS_P2;Temp;Humidity;BMP_temperature;BMP_pressure;BME280_temperature;BME280_humidity;BME280_pressure;Samples;Min_cycle;Max_cycle;Signal;HPM_P1;HPM_P2
2022/07/11 00:01:17;;;;;;;6.32;2.92;;;;;;;19.03;66.76;100997.56;5073921;28;20072;-65
2022/07/11 00:03:46;;;;;;;3.90;2.50;;;;;;;19.02;66.84;100986.63;5073603;28;20051;-66
2022/07/11 00:06:13;;;;;;;4.35;2.78;;;;;;;18.97;66.84;100987.72;5069932;28;20420;-65
2022/07/11 00:08:41;;;;;;;6.18;2.88;;;;;;;19.00;66.78;100984.19;5071335;28;20055;-65
2022/07/11 00:11:08;;;;;;;4.35;2.85;;;;;;;18.98;67.02;100980.91;5072799;28;20059;-66
2022/07/11 00:13:35;;;;;;;3.65;2.70;;;;;;;18.96;67.02;100977.63;5069693;28;20048;-66
2022/07/11 00:16:03;;;;;;;3.67;2.70;;;;;;;18.99;67.12;100973.25;5067165;28;20385;-66
2022/07/11 00:18:30;;;;;;;5.63;2.90;;;;;;;18.98;66.99;100975.25;5066241;28;20053;-65
2022/07/11 00:20:59;;;;;;;4.53;2.95;;;;;;;18.99;67.04;100968.41;5068734;28;20045;-65
2022/07/11 00:23:26;;;;;;;4.13;2.80;;;;;;;18.96;67.17;100969.16;5067688;28;20063;-66
2022/07/11 00:25:53;;;;;;;3.38;2.70;;;;;;;18.95;67.23;100973.16;5072835;28;20052;-65
2022/07/11 00:28:21;;;;;;;4.10;2.40;;;;;;;18.97;67.02;100970.78;5071934;28;20053;-65
2022/07/11 00:30:48;;;;;;;5.35;3.00;;;;;;;19.00;67.59;100963.59;5073947;28;20055;-66
2022/07/11 00:33:15;;;;;;;3.60;2.28;;;;;;;19.00;67.49;100974.88;5069130;28;20048;-65
2022/07/11 00:35:43;;;;;;;4.07;2.65;;;;;;;18.98;67.44;100966.78;5069710;28;20067;-66
2022/07/11 00:38:11;;;;;;;5.57;3.10;;;;;;;18.96;67.20;100969.16;5073409;28;20060;-65
2022/07/11 00:40:42;;;;;;;3.42;2.45;;;;;;;18.95;67.32;100961.84;5073704;28;20056;-66
2022/07/11 00:43:09;;;;;;;3.45;2.42;;;;;;;18.92;67.37;100964.56;5068986;28;20053;-64
2022/07/11 00:45:36;;;;;;;3.95;2.90;;;;;;;18.88;67.65;100956.00;5070518;28;20057;-66
2022/07/11 00:48:04;;;;;;;4.85;2.85;;;;;;;18.85;67.60;100963.19;5066239;28;20068;-65
2022/07/11 00:50:31;;;;;;;7.65;3.47;;;;;;;18.87;67.38;100962.81;5060444;28;20433;-66
2022/07/11 00:52:59;;;;;;;4.25;3.05;;;;;;;18.82;67.63;100965.91;5067654;28;20045;-66
2022/07/11 00:55:29;;;;;;;5.43;3.17;;;;;;;18.79;67.46;100963.78;5072925;28;20059;-66
2022/07/11 00:57:56;;;;;;;4.32;3.15;;;;;;;18.76;67.58;100959.66;5068988;28;20067;-66
2022/07/11 01:00:24;;;;;;;3.85;2.95;;;;;;;18.67;67.96;100962.63;5069047;28;20052;-65
2022/07/11 01:02:51;;;;;;;4.65;2.55;;;;;;;18.63;68.13;100960.88;5071382;28;20385;-66
2022/07/11 01:05:19;;;;;;;4.22;3.00;;;;;;;18.58;68.35;100973.25;5073011;28;20142;-65
2022/07/11 01:07:46;;;;;;;4.78;2.72;;;;;;;18.50;68.60;100974.22;5058053;28;20053;-66
2022/07/11 01:10:13;;;;;;;4.78;2.97;;;;;;;18.40;68.96;100963.41;5068810;28;20056;-65
2022/07/11 01:12:42;;;;;;;5.28;3.08;;;;;;;18.32;69.10;100968.00;5072434;28;20056;-66
2022/07/11 01:15:11;;;;;;;4.53;2.80;;;;;;;18.28;68.92;100964.25;5070757;28;20067;-65
2022/07/11 01:17:40;;;;;;;5.20;3.30;;;;;;;18.20;68.87;100966.00;5053319;28;20057;-66
2022/07/11 01:20:09;;;;;;;3.40;2.85;;;;;;;18.12;69.19;100963.31;5065571;28;20048;-66
2022/07/11 01:22:37;;;;;;;;;;;;;;;17.94;69.59;100976.84;5072810;28;20056;-66
2022/07/11 01:25:07;;;;;;;3.78;2.72;;;;;;;17.88;69.78;100978.28;5066472;28;19920;-65
2022/07/11 01:27:38;;;;;;;5.43;2.97;;;;;;;17.83;69.86;100966.06;5072198;28;20052;-65
2022/07/11 01:30:06;;;;;;;8.82;2.97;;;;;;;17.76;70.22;100974.22;5069078;28;20067;-65
2022/07/11 01:32:34;;;;;;;6.60;3.10;;;;;;;17.72;70.15;100967.63;5072397;28;20495;-65
2022/07/11 01:35:01;;;;;;;4.35;2.80;;;;;;;17.69;70.41;100968.34;5064128;28;20052;-65
2022/07/11 01:37:28;;;;;;;4.15;2.50;;;;;;;17.66;70.55;100966.25;5065430;28;20052;-65
2022/07/11 01:39:56;;;;;;;2.70;2.30;;;;;;;17.62;70.87;100965.31;5068524;28;20045;-65
2022/07/11 01:42:25;;;;;;;6.22;2.95;;;;;;;17.61;70.97;100963.66;5060554;28;20061;-65
2022/07/11 01:44:52;;;;;;;5.03;2.83;;;;;;;17.58;71.40;100968.00;5071668;28;20052;-66
2022/07/11 01:47:19;;;;;;;3.72;3.05;;;;;;;17.59;71.57;100972.44;5071989;28;20064;-66
2022/07/11 01:49:46;;;;;;;4.15;2.72;;;;;;;17.61;71.62;100970.09;5066751;28;20048;-66
2022/07/11 01:52:14;;;;;;;6.47;3.10;;;;;;;17.64;71.80;100968.59;5053949;28;20053;-66
2022/07/11 01:54:41;;;;;;;7.15;3.53;;;;;;;17.68;71.92;100968.69;5051994;28;20473;-66
2022/07/11 01:57:09;;;;;;;5.95;3.25;;;;;;;17.72;71.76;100967.63;5063980;28;20064;-65
2022/07/11 01:59:38;;;;;;;4.40;3.50;;;;;;;17.76;71.62;100967.78;5067302;28;20052;-66
2022/07/11 02:02:06;;;;;;;3.87;3.10;;;;;;;17.78;71.53;100965.41;5068681;28;20056;-66
2022/07/11 02:04:33;;;;;;;4.45;2.97;;;;;;;17.81;71.64;100962.72;5071430;28;20499;-66
2022/07/11 02:07:01;;;;;;;3.75;3.10;;;;;;;17.86;71.63;100961.69;5070499;28;20057;-65
2022/07/11 02:09:28;;;;;;;4.75;3.10;;;;;;;17.93;71.32;100969.56;5051777;28;20056;-65
2022/07/11 02:11:55;;;;;;;3.90;3.22;;;;;;;17.94;70.99;100965.59;5053268;28;20382;-65
2022/07/11 02:14:22;;;;;;;4.22;2.88;;;;;;;17.95;71.16;100962.38;5069878;28;20045;-65
2022/07/11 02:16:51;;;;;;;3.10;2.67;;;;;;;17.99;71.36;100959.69;5060137;28;20044;-65
2022/07/11 02:19:18;;;;;;;3.90;2.73;;;;;;;18.02;71.38;100961.81;5061880;28;20057;-66
2022/07/11 02:21:46;;;;;;;4.85;3.20;;;;;;;18.01;71.24;100958.16;5061436;28;20483;-66
2022/07/11 02:24:13;;;;;;;4.70;3.10;;;;;;;18.02;71.32;100961.81;5051721;28;20385;-66
2022/07/11 02:26:40;;;;;;;6.38;3.42;;;;;;;18.06;71.23;100962.75;5053541;28;20496;-65
2022/07/11 02:29:08;;;;;;;7.20;3.28;;;;;;;18.07;71.09;100955.13;5068135;28;20048;-66
2022/07/11 02:31:35;;;;;;;5.93;3.33;;;;;;;18.11;71.23;100961.69;5069875;28;20067;-65
2022/07/11 02:34:04;;;;;;;2.95;2.40;;;;;;;18.13;71.04;100968.63;5067303;28;20041;-65
2022/07/11 02:36:32;;;;;;;4.55;2.92;;;;;;;18.16;70.97;100964.25;5061393;28;20048;-66
2022/07/11 02:38:59;;;;;;;3.90;2.92;;;;;;;18.17;70.98;100966.75;5071751;28;20060;-65
2022/07/11 02:41:26;;;;;;;4.65;3.10;;;;;;;18.22;70.85;100963.66;5070380;28;20059;-65
2022/07/11 02:43:53;;;;;;;5.70;3.05;;;;;;;18.24;70.71;100968.97;5060567;28;20048;-65
2022/07/11 02:46:22;;;;;;;4.50;2.83;;;;;;;18.26;70.71;100958.97;5071965;28;20378;-65
2022/07/11 02:48:49;;;;;;;4.40;2.67;;;;;;;18.31;70.49;100957.06;5055105;28;20504;-64
2022/07/11 02:51:18;;;;;;;4.72;2.97;;;;;;;18.32;70.64;100970.00;5055011;28;20048;-66
2022/07/11 02:53:45;;;;;;;5.28;2.85;;;;;;;18.33;70.54;100968.81;5071348;28;20067;-65
2022/07/11 02:56:13;;;;;;;3.40;2.55;;;;;;;18.26;70.80;100967.41;5069906;28;20092;-66
2022/07/11 02:58:41;;;;;;;4.35;2.80;;;;;;;18.31;70.66;100969.19;5051564;28;20522;-66
2022/07/11 03:01:08;;;;;;;4.68;3.00;;;;;;;18.33;70.88;100964.03;5069101;28;20052;-65
2022/07/11 03:03:35;;;;;;;3.85;3.00;;;;;;;18.37;70.49;100964.97;5071212;28;20507;-66
2022/07/11 03:06:03;;;;;;;5.38;3.05;;;;;;;18.41;70.61;100962.22;5071534;28;20052;-66
2022/07/11 03:08:31;;;;;;;5.47;3.47;;;;;;;18.47;70.07;100969.28;5070940;28;20378;-66
2022/07/11 03:10:59;;;;;;;8.48;3.50;;;;;;;18.50;70.09;100962.94;5071772;28;20052;-66
2022/07/11 03:13:26;;;;;;;5.55;3.05;;;;;;;18.51;69.81;100960.94;5071116;28;20053;-65
2022/07/11 03:15:53;;;;;;;7.15;3.55;;;;;;;18.51;69.63;100958.91;5071342;28;20473;-66
2022/07/11 03:18:21;;;;;;;7.25;3.38;;;;;;;18.53;69.69;100950.09;5071523;28;20048;-66
2022/07/11 03:20:48;;;;;;;6.82;3.50;;;;;;;18.57;69.62;100954.66;5071235;28;20063;-66
2022/07/11 03:23:15;;;;;;;6.90;3.58;;;;;;;18.57;69.43;100957.50;5070947;28;20052;-66
2022/07/11 03:25:44;;;;;;;5.40;3.15;;;;;;;18.60;69.43;100956.75;5070000;28;20045;-66
2022/07/11 03:28:13;;;;;;;5.32;3.40;;;;;;;18.59;69.27;100948.69;5071079;28;20059;-65
2022/07/11 03:30:40;;;;;;;4.80;2.83;;;;;;;18.63;69.27;100961.72;5071115;28;20056;-65
2022/07/11 03:33:07;;;;;;;10.45;4.18;;;;;;;18.60;69.25;100962.41;5071008;28;20503;-65
2022/07/11 03:35:44;;;;;;;6.47;3.45;;;;;;;18.60;69.30;100961.59;5070946;28;20477;-65
2022/07/11 03:38:12;;;;;;;5.65;3.38;;;;;;;18.60;69.36;100956.75;5071123;28;20052;-65
2022/07/11 03:40:40;;;;;;;7.05;3.42;;;;;;;18.63;69.12;100961.72;5070889;28;20048;-65
2022/07/11 03:43:09;;;;;;;6.60;3.42;;;;;;;18.68;68.96;100969.09;5072360;28;20060;-66
2022/07/11 03:45:37;;;;;;;5.60;3.15;;;;;;;18.68;68.96;100960.63;5074190;28;20056;-66
2022/07/11 03:48:05;;;;;;;4.07;3.10;;;;;;;18.70;68.97;100963.09;5074494;28;20052;-66
2022/07/11 03:50:32;;;;;;;6.88;3.00;;;;;;;18.71;69.12;100973.19;5074097;28;20477;-66
2022/07/11 03:53:00;;;;;;;7.88;3.42;;;;;;;18.75;68.89;100971.31;5074399;28;20049;-66
2022/07/11 03:55:27;;;;;;;5.85;3.67;;;;;;;18.76;68.80;100965.31;5074632;28;20059;-66
2022/07/11 03:57:55;;;;;;;7.82;3.47;;;;;;;18.74;68.95;100961.22;5068969;28;20049;-66
2022/07/11 04:00:24;;;;;;;6.82;3.72;;;;;;;18.74;68.88;100969.66;5069134;28;20056;-66
2022/07/11 04:02:52;;;;;;;5.78;3.30;;;;;;;18.65;69.08;100965.00;5074379;28;20052;-66
2022/07/11 04:05:19;;;;;;;7.00;3.10;;;;;;;18.72;69.07;100975.66;5067382;28;20045;-66
2022/07/11 04:07:46;;;;;;;5.60;3.30;;;;;;;18.70;68.96;100969.56;5057233;28;20412;-66
2022/07/11 04:10:14;;;;;;;6.93;3.78;;;;;;;18.73;69.06;100976.47;5072495;28;20056;-64
2022/07/11 04:12:41;;;;;;;5.40;3.35;;;;;;;18.76;68.90;100964.50;5053860;28;20057;-66
2022/07/11 04:15:11;;;;;;;5.00;3.45;;;;;;;18.78;68.95;100973.41;5054112;28;20053;-66
2022/07/11 04:17:40;;;;;;;5.65;3.30;;;;;;;18.73;69.07;100968.00;5070006;28;20052;-65
2022/07/11 04:20:08;;;;;;;6.90;3.60;;;;;;;18.69;69.21;100975.56;5073903;28;20048;-65
2022/07/11 04:22:36;;;;;;;5.78;3.50;;;;;;;18.76;69.29;100975.78;5071859;28;20048;-65
2022/07/11 04:25:04;;;;;;;6.78;3.63;;;;;;;18.78;69.09;100973.41;5061497;28;20049;-64
2022/07/11 04:27:31;;;;;;;4.32;3.15;;;;;;;18.81;68.91;100973.53;5070538;28;20060;-65
2022/07/11 04:29:58;;;;;;;7.07;3.67;;;;;;;18.86;68.72;100969.66;5054494;28;20056;-65
2022/07/11 04:32:26;;;;;;;5.35;3.03;;;;;;;18.84;68.80;100969.19;5068185;28;20063;-65
2022/07/11 04:34:55;;;;;;;8.80;3.50;;;;;;;18.88;68.64;100966.47;5067022;28;20406;-65
2022/07/11 04:37:22;;;;;;;7.10;3.85;;;;;;;18.90;68.65;100969.75;5053697;28;20053;-65
2022/07/11 04:39:49;;;;;;;7.75;3.65;;;;;;;18.90;68.70;100981.03;5069725;28;20057;-65
2022/07/11 04:42:17;;;;;;;6.07;3.08;;;;;;;18.91;68.63;100977.88;5072067;28;20416;-65
2022/07/11 04:44:44;;;;;;;8.63;3.55;;;;;;;18.93;68.67;100972.69;5058943;28;20412;-63
2022/07/11 04:47:11;;;;;;;8.45;3.95;;;;;;;18.93;68.83;100978.31;5061886;28;20055;-65
2022/07/11 04:49:42;;;;;;;6.53;3.47;;;;;;;18.96;68.54;100980.44;5060226;28;20048;-65
2022/07/11 04:52:11;;;;;;;6.43;3.50;;;;;;;18.98;68.54;100983.72;5057482;28;20776;-65
2022/07/11 04:54:38;;;;;;;6.65;3.50;;;;;;;19.00;68.32;100978.56;5062306;28;20500;-65
2022/07/11 04:57:10;;;;;;;9.18;3.65;;;;;;;18.99;68.34;100985.34;5065916;28;20048;-65
2022/07/11 04:59:38;;;;;;;6.90;3.70;;;;;;;18.98;68.40;100995.03;5067443;28;20048;-64
2022/07/11 05:02:10;;;;;;;6.43;4.10;;;;;;;19.02;68.39;100995.09;5063467;28;20048;-65
2022/07/11 05:04:37;;;;;;;7.53;4.20;;;;;;;19.05;68.49;100991.59;5055727;28;20048;-65
2022/07/11 05:07:05;;;;;;;7.35;3.78;;;;;;;19.12;68.09;100990.97;5071834;28;20052;-65
2022/07/11 05:09:34;;;;;;;6.95;3.78;;;;;;;19.19;67.85;100988.31;5071057;28;20424;-64
2022/07/11 05:12:03;;;;;;;6.28;3.53;;;;;;;19.21;68.01;101000.06;5072967;28;20049;-65
2022/07/11 05:14:31;;;;;;;6.05;3.92;;;;;;;19.28;67.71;100997.47;5071944;28;20396;-65
2022/07/11 05:16:58;;;;;;;5.88;3.33;;;;;;;19.32;67.41;100986.25;5065226;28;20052;-65
2022/07/11 05:19:25;;;;;;;7.25;3.70;;;;;;;19.39;67.25;101001.41;5072870;28;20401;-65
2022/07/11 05:21:53;;;;;;;8.10;4.20;;;;;;;19.42;66.93;100991.38;5061677;28;20056;-65
2022/07/11 05:24:20;;;;;;;6.97;3.58;;;;;;;19.43;67.14;100999.50;5054166;28;20049;-64
2022/07/11 05:26:48;;;;;;;6.70;3.33;;;;;;;19.47;66.60;101005.25;5062529;28;20494;-64
2022/07/11 05:29:16;;;;;;;6.03;3.88;;;;;;;19.45;66.86;100999.16;5065699;28;20048;-65
2022/07/11 05:31:49;;;;;;;6.57;3.38;;;;;;;19.45;66.62;101005.59;5069157;28;20052;-64
2022/07/11 05:34:17;;;;;;;5.60;3.45;;;;;;;19.45;66.66;101004.78;5065264;28;20049;-64
2022/07/11 05:36:45;;;;;;;5.03;3.13;;;;;;;19.43;66.60;101010.78;5068771;28;20048;-65
2022/07/11 05:39:12;;;;;;;5.65;3.67;;;;;;;19.43;66.68;101005.16;5067173;28;20052;-64
2022/07/11 05:41:40;;;;;;;6.78;3.15;;;;;;;19.46;66.63;101004.44;5067751;28;20079;-64
2022/07/11 05:44:08;;;;;;;6.85;3.03;;;;;;;19.49;66.19;101008.53;5072351;28;20153;-65
2022/07/11 05:46:39;;;;;;;4.28;2.90;;;;;;;19.48;66.19;101010.53;5067774;28;20052;-65
2022/07/11 05:49:07;;;;;;;7.47;3.10;;;;;;;19.51;66.05;101009.00;5071996;28;20525;-65
2022/07/11 05:51:36;;;;;;;4.78;2.90;;;;;;;19.60;65.49;101008.81;5072347;28;20075;-65
2022/07/11 05:54:03;;;;;;;6.60;2.42;;;;;;;19.66;65.38;101004.53;5070206;28;20504;-65
2022/07/11 05:56:30;;;;;;;4.22;2.63;;;;;;;19.71;64.76;101009.13;5058895;28;20059;-64
2022/07/11 05:58:58;;;;;;;4.93;2.83;;;;;;;19.74;64.54;101014.03;5063668;28;20072;-65
2022/07/11 06:01:27;;;;;;;3.28;2.00;;;;;;;19.76;64.69;101015.34;5062373;28;20056;-65
2022/07/11 06:03:54;;;;;;;5.40;2.58;;;;;;;19.77;64.24;101024.63;5059325;28;20497;-64
2022/07/11 06:06:22;;;;;;;4.45;2.67;;;;;;;19.75;64.13;101024.19;5059340;28;20048;-64
2022/07/11 06:08:49;;;;;;;6.07;3.03;;;;;;;19.69;64.93;101020.75;5063465;28;20045;-65
2022/07/11 06:11:16;;;;;;;4.93;3.47;;;;;;;19.66;65.10;101019.50;5053235;28;20064;-65
2022/07/11 06:13:45;;;;;;;5.55;4.00;;;;;;;19.65;65.04;101019.84;5058249;28;20064;-64
2022/07/11 06:16:12;;;;;;;10.02;4.00;;;;;;;19.56;65.45;101020.03;5070545;28;20044;-65
2022/07/11 06:18:42;;;;;;;6.72;3.80;;;;;;;19.50;65.95;101023.47;5059070;28;20401;-63
2022/07/11 06:21:09;;;;;;;5.93;3.97;;;;;;;19.48;66.11;101027.47;5055188;28;20064;-65
2022/07/11 06:23:36;;;;;;;5.72;2.97;;;;;;;19.54;65.94;101030.06;5051544;28;20053;-65
2022/07/11 06:26:04;;;;;;;3.95;2.78;;;;;;;19.59;65.92;101026.94;5064164;28;20064;-64
2022/07/11 06:28:32;;;;;;;4.55;2.78;;;;;;;19.59;65.70;101035.41;5064127;28;20413;-65
2022/07/11 06:30:59;;;;;;;6.43;2.70;;;;;;;19.58;65.40;101040.25;5056704;28;20543;-65
2022/07/11 06:33:27;;;;;;;4.68;2.60;;;;;;;19.58;65.80;101039.44;5061841;28;20053;-65
2022/07/11 06:35:55;;;;;;;4.65;1.98;;;;;;;19.51;65.23;101037.25;5068763;28;20489;-64
2022/07/11 06:38:23;;;;;;;4.35;1.92;;;;;;;19.50;64.88;101038.41;5057735;28;20494;-64
2022/07/11 06:40:50;;;;;;;3.45;1.67;;;;;;;19.43;64.17;101041.88;5054988;28;20059;-64
2022/07/11 06:43:18;;;;;;;3.08;1.60;;;;;;;19.41;64.34;101038.59;5056973;28;20155;-63
2022/07/11 06:45:46;;;;;;;2.95;1.52;;;;;;;19.39;63.95;101038.13;5059928;28;20056;-64
2022/07/11 06:48:13;;;;;;;3.70;1.40;;;;;;;19.41;63.89;101046.25;5064415;28;20075;-64
2022/07/11 06:50:41;;;;;;;4.13;1.30;;;;;;;19.40;63.61;101041.78;5065663;28;20060;-63
2022/07/11 06:53:10;;;;;;;3.70;1.30;;;;;;;19.52;62.91;101040.91;5060171;28;20056;-64
2022/07/11 06:55:37;;;;;;;6.53;1.20;;;;;;;19.46;62.34;101038.34;5060696;28;21847;-64
2022/07/11 06:58:05;;;;;;;2.05;1.10;;;;;;;19.59;62.12;101049.56;5065382;28;20052;-64
2022/07/11 07:00:32;;;;;;;3.05;1.30;;;;;;;19.73;62.00;101041.50;5065810;28;20056;-64
2022/07/11 07:02:59;;;;;;;2.25;1.10;;;;;;;19.91;61.73;101049.63;5058711;28;20065;-63
2022/07/11 07:05:27;;;;;;;3.75;1.27;;;;;;;20.03;60.94;101043.88;5059265;28;20056;-64
2022/07/11 07:07:54;;;;;;;3.25;1.05;;;;;;;20.08;60.67;101052.09;5063335;28;20049;-64
2022/07/11 07:10:25;;;;;;;2.55;0.85;;;;;;;20.02;59.89;101048.72;5062961;28;20056;-64
2022/07/11 07:12:52;;;;;;;0.93;0.50;;;;;;;19.93;59.84;101050.06;5061102;28;20065;-64
2022/07/11 07:15:19;;;;;;;1.67;0.80;;;;;;;20.07;59.16;101054.13;5064103;28;20080;-64
2022/07/11 07:17:47;;;;;;;1.50;0.70;;;;;;;20.30;58.77;101052.63;5065579;28;20509;-64
2022/07/11 07:20:14;;;;;;;2.47;0.52;;;;;;;20.49;58.18;101052.69;5063419;28;20067;-65
2022/07/11 07:22:41;;;;;;;1.30;0.70;;;;;;;20.51;57.26;101046.66;5062237;28;20512;-64
2022/07/11 07:25:10;;;;;;;2.17;0.60;;;;;;;20.53;56.78;101049.94;5069048;28;20065;-64
2022/07/11 07:27:38;;;;;;;1.73;0.65;;;;;;;20.85;56.57;101045.88;5062688;28;20044;-64
2022/07/11 07:30:07;;;;;;;1.30;0.60;;;;;;;21.26;55.98;101054.00;5063249;28;20056;-64
2022/07/11 07:32:34;;;;;;;1.05;0.63;;;;;;;21.37;55.48;101055.03;5067993;28;20052;-64
2022/07/11 07:35:01;;;;;;;2.65;0.90;;;;;;;21.59;54.93;101050.66;5068290;28;20056;-64
2022/07/11 07:37:29;;;;;;;1.02;0.45;;;;;;;21.80;53.56;101046.59;5063315;28;20056;-65
2022/07/11 07:39:56;;;;;;;2.50;1.00;;;;;;;21.88;53.67;101043.50;5066509;28;20412;-65
2022/07/11 07:42:23;;;;;;;1.15;0.70;;;;;;;21.89;53.68;101044.31;5068648;28;20057;-64
2022/07/11 07:44:52;;;;;;;1.20;0.60;;;;;;;21.81;53.80;101056.72;5063251;28;20056;-63
2022/07/11 07:47:20;;;;;;;0.77;0.40;;;;;;;21.85;53.58;101049.09;5059501;28;20056;-63
2022/07/11 07:49:47;;;;;;;1.17;0.52;;;;;;;21.87;53.14;101050.34;5068532;28;20063;-64
2022/07/11 07:52:14;;;;;;;2.45;0.70;;;;;;;21.84;53.47;101051.13;5064701;28;20424;-64
2022/07/11 07:54:42;;;;;;;2.55;0.98;;;;;;;21.80;53.38;101049.41;5064716;28;20067;-64
2022/07/11 07:57:09;;;;;;;2.15;0.75;;;;;;;21.71;53.41;101054.50;5066494;28;20060;-64
2022/07/11 07:59:36;;;;;;;2.17;0.80;;;;;;;21.67;53.68;101048.75;5064478;28;20450;-63
2022/07/11 08:02:04;;;;;;;2.83;0.93;;;;;;;21.68;53.70;101053.25;5068714;28;20501;-64
2022/07/11 08:04:32;;;;;;;2.13;0.85;;;;;;;21.64;54.18;101049.50;5066322;28;20056;-64
2022/07/11 08:06:59;;;;;;;1.63;0.70;;;;;;;21.60;54.43;101054.28;5061822;28;20044;-64
2022/07/11 08:09:27;;;;;;;2.17;0.80;;;;;;;21.57;54.15;101055.06;5062424;28;20063;-64
2022/07/11 08:11:54;;;;;;;1.40;0.80;;;;;;;21.45;54.36;101053.19;5061690;28;20056;-64
2022/07/11 08:14:22;;;;;;;2.33;1.10;;;;;;;21.51;54.48;101056.56;5065990;28;20421;-63
2022/07/11 08:16:50;;;;;;;0.90;0.50;;;;;;;21.52;54.30;101056.16;5067623;28;20061;-63
2022/07/11 08:19:19;;;;;;;2.38;0.80;;;;;;;21.48;54.62;101058.09;5069250;28;20067;-64
2022/07/11 08:21:46;;;;;;;2.42;1.00;;;;;;;21.50;54.82;101058.56;5066189;28;20056;-66
2022/07/11 08:24:13;;;;;;;3.25;0.90;;;;;;;21.58;54.74;101057.50;5067722;28;20053;-66
2022/07/11 08:26:41;;;;;;;1.73;0.70;;;;;;;21.67;54.73;101054.41;5066923;28;20061;-66
2022/07/11 08:29:08;;;;;;;2.25;0.57;;;;;;;21.88;54.34;101056.81;5062539;28;20513;-63
2022/07/11 08:31:36;;;;;;;1.67;0.63;;;;;;;22.04;53.61;101056.72;5063116;28;20505;-65
2022/07/11 08:34:03;;;;;;;2.47;1.15;;;;;;;22.10;53.80;101052.38;5065549;28;20060;-65
2022/07/11 08:36:34;;;;;;;2.00;0.77;;;;;;;22.27;53.89;101057.53;5063181;28;20489;-65
2022/07/11 08:39:02;;;;;;;1.40;0.88;;;;;;;22.38;53.46;101062.56;5067384;28;20063;-66
2022/07/11 08:41:29;;;;;;;2.17;1.30;;;;;;;22.40;53.11;101071.53;5064663;28;20409;-65
2022/07/11 08:43:58;;;;;;;2.10;1.48;;;;;;;22.42;52.76;101067.09;5058260;28;20048;-63
2022/07/11 08:46:26;;;;;;;3.40;1.20;;;;;;;22.52;52.75;101068.47;5062609;28;20052;-62
2022/07/11 08:48:55;;;;;;;1.42;1.00;;;;;;;22.56;52.51;101065.72;5060091;28;20041;-62
2022/07/11 08:51:23;;;;;;;2.72;1.02;;;;;;;22.51;52.97;101072.53;5067284;28;20063;-62
2022/07/11 08:53:52;;;;;;;1.88;1.00;;;;;;;22.53;52.78;101064.44;5063136;28;20067;-62
2022/07/11 08:56:22;;;;;;;3.60;1.48;;;;;;;22.54;52.80;101065.28;5064932;28;20059;-62
2022/07/11 08:58:50;;;;;;;3.75;1.70;;;;;;;22.52;52.92;101071.31;5062623;28;20051;-63
2022/07/11 09:01:20;;;;;;;3.97;1.83;;;;;;;22.53;53.25;101070.09;5066141;28;20064;-62
2022/07/11 09:03:50;;;;;;;2.95;2.20;;;;;;;22.58;53.33;101066.16;5064738;28;20059;-62
2022/07/11 09:06:17;;;;;;;;;;;;;;;22.55;52.71;101075.41;5062134;28;20511;-62
2022/07/11 09:08:44;;;;;;;4.32;2.60;;;;;;;22.68;52.78;101079.69;5058160;28;20388;-62
2022/07/11 09:11:12;;;;;;;3.85;2.88;;;;;;;22.75;52.51;101076.13;5068172;28;20082;-62
2022/07/11 09:13:40;;;;;;;3.97;2.63;;;;;;;22.72;52.75;101072.03;5059872;28;20060;-62
2022/07/11 09:16:09;;;;;;;3.83;2.53;;;;;;;22.81;52.27;101074.59;5064727;28;20448;-65
2022/07/11 09:18:39;;;;;;;2.80;2.30;;;;;;;23.01;51.83;101078.13;5062836;28;20052;-65
2022/07/11 09:26:43;;;;;;;1.80;1.27;;;;;;;23.07;51.27;101071.72;5066994;28;20587;-65
2022/07/11 09:29:12;;;;;;;2.20;1.20;;;;;;;23.04;51.72;101066.81;5062454;28;20060;-65
2022/07/11 09:31:41;;;;;;;2.15;1.20;;;;;;;23.18;51.69;101069.06;5062511;28;20055;-65
2022/07/11 09:34:10;;;;;;;2.37;1.10;;;;;;;23.25;51.43;101069.13;5064551;28;20056;-64
2022/07/11 09:36:43;;;;;;;1.83;1.00;;;;;;;23.24;51.52;101069.50;5067318;28;20056;-65
2022/07/11 09:39:13;;;;;;;3.42;1.30;;;;;;;23.06;51.11;101074.97;5063752;28;20061;-65
2022/07/11 09:41:42;;;;;;;3.05;1.10;;;;;;;22.93;51.87;101070.69;5064453;28;20099;-65
2022/07/11 09:44:15;;;;;;;3.03;1.20;;;;;;;22.80;52.14;101070.09;5065338;28;20060;-65
2022/07/11 09:46:45;;;;;;;1.38;0.80;;;;;;;22.73;52.99;101070.00;5064489;28;20056;-65
2022/07/11 09:49:12;;;;;;;2.30;1.10;;;;;;;22.67;53.31;101069.50;5064066;28;20048;-65
2022/07/11 09:51:40;;;;;;;2.50;1.30;;;;;;;22.68;52.99;101066.31;5064854;28;20071;-65
2022/07/11 09:54:09;;;;;;;3.42;0.90;;;;;;;22.77;52.85;101063.19;5058123;28;20413;-65
2022/07/11 09:56:40;;;;;;;1.60;1.00;;;;;;;23.03;53.05;101068.03;5063913;28;20053;-65
2022/07/11 09:59:11;;;;;;;2.28;0.90;;;;;;;23.30;52.27;101062.28;5066063;28;20626;-65
2022/07/11 10:01:39;;;;;;;1.67;0.90;;;;;;;23.58;51.39;101070.34;5064056;28;20060;-65
2022/07/11 10:04:07;;;;;;;4.22;1.10;;;;;;;23.85;50.09;101059.66;5061653;28;20067;-65
2022/07/11 10:06:36;;;;;;;2.25;1.00;;;;;;;24.08;49.58;101061.50;5065835;28;20063;-63
2022/07/11 10:09:05;;;;;;;2.42;0.80;;;;;;;24.32;49.38;101062.94;5053910;28;20048;-64
2022/07/11 10:11:32;;;;;;;2.43;1.13;;;;;;;24.38;49.09;101057.66;5064029;28;20048;-63
2022/07/11 10:14:00;;;;;;;1.92;1.13;;;;;;;24.44;49.03;101062.63;5062690;28;20051;-64
2022/07/11 10:16:46;;;;;;;1.98;0.90;;;;;;;24.69;48.31;101062.81;5064811;28;20052;-64
2022/07/11 10:19:34;;;;;;;1.23;0.75;;;;;;;24.68;47.83;101069.72;5063279;28;20413;-64
2022/07/11 10:22:10;;;;;;;1.73;1.30;;;;;;;24.61;47.65;101068.84;5063573;28;20210;-64
2022/07/11 10:24:46;;;;;;;1.48;1.20;;;;;;;24.36;48.04;101071.47;5061954;28;20491;-64
2022/07/11 10:27:23;;;;;;;1.45;1.20;;;;;;;24.28;48.22;101071.44;5061457;28;20060;-64
2022/07/11 10:29:52;;;;;;;1.98;1.30;;;;;;;24.25;48.38;101066.53;5061257;28;20071;-63
2022/07/11 10:32:21;;;;;;;2.65;1.30;;;;;;;24.17;49.05;101075.38;5061182;28;20059;-64
2022/07/11 10:35:07;;;;;;;2.80;1.50;;;;;;;24.03;49.05;101073.25;5060995;28;20413;-63
2022/07/11 10:37:50;;;;;;;2.55;2.13;;;;;;;23.83;49.35;101078.31;5061907;28;20048;-64
2022/07/11 10:40:47;;;;;;;3.03;2.47;;;;;;;23.70;49.65;101074.91;5058339;28;20469;-64
2022/07/11 10:43:16;;;;;;;3.88;2.25;;;;;;;23.65;49.62;101075.28;5055015;28;20063;-63
2022/07/11 10:45:58;;;;;;;2.63;2.42;;;;;;;23.59;50.40;101079.69;5059716;28;20052;-64
2022/07/11 10:48:29;;;;;;;3.92;2.92;;;;;;;23.61;50.52;101083.75;5065980;28;20094;-64
2022/07/11 10:51:16;;;;;;;3.70;3.28;;;;;;;23.57;50.67;101082.09;5064073;28;20405;-63
2022/07/11 10:53:48;;;;;;;3.63;3.13;;;;;;;23.55;50.34;101082.47;5070182;28;20064;-64
2022/07/11 10:56:47;;;;;;;3.15;2.38;;;;;;;23.50;51.08;101094.22;5063188;28;20044;-64
2022/07/11 10:59:15;;;;;;;;;;;;;;;23.32;51.07;101085.44;5069532;28;20053;-64
2022/07/11 11:02:05;;;;;;;3.22;2.45;;;;;;;23.24;51.10;101089.41;5068908;28;19936;-64
2022/07/11 11:04:57;;;;;;;2.47;2.10;;;;;;;23.15;51.37;101098.22;5068389;28;20060;-64
2022/07/11 11:07:31;;;;;;;3.08;2.00;;;;;;;23.17;51.58;101095.81;5066961;28;20068;-64
2022/07/11 11:10:00;;;;;;;2.83;2.00;;;;;;;23.18;51.99;101094.63;5061219;28;20040;-63
2022/07/11 11:13:05;;;;;;;2.60;2.40;;;;;;;23.15;52.00;101100.25;5070610;28;20080;-64
2022/07/11 11:15:34;;;;;;;3.78;2.08;;;;;;;23.10;52.34;101093.72;5075413;28;20489;-64
2022/07/11 11:18:36;;;;;;;2.50;2.08;;;;;;;23.10;52.13;101107.09;5063150;28;20052;-64
2022/07/11 11:21:32;;;;;;;2.70;2.20;;;;;;;23.03;52.66;101104.97;5068419;28;20064;-63
2022/07/11 11:24:08;;;;;;;2.50;1.92;;;;;;;23.18;52.24;101094.63;5058054;28;20053;-64
2022/07/11 11:26:50;;;;;;;2.92;1.60;;;;;;;23.25;52.29;101099.59;5065676;28;20056;-63
2022/07/11 11:29:25;;;;;;;4.18;1.60;;;;;;;23.56;51.63;101094.66;5066816;28;20484;-63
2022/07/11 11:31:55;;;;;;;2.58;1.33;;;;;;;23.73;51.68;101094.06;5065995;28;20063;-64
2022/07/11 11:34:23;;;;;;;1.80;1.40;;;;;;;24.00;50.59;101086.25;5063535;28;20052;-63
2022/07/11 11:37:01;;;;;;;1.85;1.30;;;;;;;24.23;49.77;101088.91;5065939;28;20048;-64
2022/07/11 11:39:31;;;;;;;1.75;1.40;;;;;;;24.32;49.71;101097.09;5066960;28;20075;-64
2022/07/11 11:42:04;;;;;;;2.60;1.50;;;;;;;24.38;49.73;101089.81;5068822;28;20457;-63